Time;durP1;ratioP1;P1;durP2;ratioP2;P2;SDS_P1;SDS_P2;PMS_P1;PMS_P2;Temp;Humidity;BMP_temperature;BMP_pressure;BME280_temperature;BME280_humidity;BME280_pressure;Samples;Min_cycle;Max_cycle;Signal;HPM_P1;HPM_P2
2023/02/27 00:01:08;;;;;;;11.98;5.88;;;-1.50;88.40;;;;;;5052690;28;20059;-81
2023/02/27 00:03:34;;;;;;;11.45;5.20;;;-1.60;88.30;;;;;;5052746;28;20096;-80
2023/02/27 00:05:59;;;;;;;11.85;4.80;;;-1.50;89.50;;;;;;5052678;28;20067;-80
2023/02/27 00:08:25;;;;;;;10.30;6.13;;;-1.50;88.90;;;;;;5052746;28;20021;-81
2023/02/27 00:10:51;;;;;;;12.80;5.25;;;-1.50;89.20;;;;;;5052724;28;20055;-80
2023/02/27 00:13:17;;;;;;;7.65;5.28;;;-1.50;89.00;;;;;;5052544;28;20021;-81
2023/02/27 00:15:49;;;;;;;8.02;5.20;;;-1.60;88.50;;;;;;5051380;28;20080;-81
2023/02/27 00:18:14;;;;;;;9.13;4.85;;;-1.60;87.70;;;;;;5051705;28;20410;-81
2023/02/27 00:20:40;;;;;;;9.45;4.93;;;-1.60;87.70;;;;;;5052616;28;20029;-80
2023/02/27 00:23:08;;;;;;;9.73;3.95;;;-1.60;86.80;;;;;;5052746;28;20017;-80
2023/02/27 00:25:34;;;;;;;9.65;5.43;;;-1.60;87.00;;;;;;5051391;28;20025;-80
2023/02/27 00:27:59;;;;;;;8.52;4.70;;;-1.60;85.70;;;;;;5051529;28;20112;-79
2023/02/27 00:30:25;;;;;;;9.65;4.82;;;-1.60;85.40;;;;;;5051329;28;20032;-79
2023/02/27 00:32:52;;;;;;;10.68;4.85;;;-1.60;84.10;;;;;;5052776;28;20022;-79
2023/02/27 00:35:18;;;;;;;10.55;4.55;;;-1.60;84.00;;;;;;5051233;28;20036;-79
2023/02/27 00:37:43;;;;;;;8.82;4.88;;;-1.60;84.30;;;;;;5051226;28;20025;-79
2023/02/27 00:40:10;;;;;;;9.65;4.50;;;-1.60;83.40;;;;;;5051185;28;20025;-79
2023/02/27 00:42:36;;;;;;;8.13;4.28;;;-1.60;83.20;;;;;;5051197;28;20031;-79
2023/02/27 00:45:03;;;;;;;10.73;4.90;;;-1.60;83.20;;;;;;5050927;28;20029;-79
2023/02/27 00:47:29;;;;;;;9.57;4.40;;;-1.60;83.90;;;;;;5051316;28;20104;-80
2023/02/27 00:49:54;;;;;;;13.30;5.93;;;-1.60;83.80;;;;;;5051358;28;20105;-79
2023/02/27 00:52:20;;;;;;;7.95;4.03;;;-1.60;83.60;;;;;;5051293;28;20474;-79
2023/02/27 00:54:45;;;;;;;9.43;4.38;;;-1.70;81.40;;;;;;5051370;28;20158;-79
2023/02/27 00:57:12;;;;;;;7.00;4.25;;;-1.60;82.00;;;;;;5051468;28;20032;-80
2023/02/27 00:59:37;;;;;;;7.70;3.75;;;-1.60;81.80;;;;;;5055033;28;20053;-80
2023/02/27 01:02:03;;;;;;;7.75;3.63;;;-1.60;80.00;;;;;;5054755;28;20067;-80
2023/02/27 01:04:28;;;;;;;8.23;3.45;;;-1.70;79.70;;;;;;5054551;28;20025;-79
2023/02/27 01:06:54;;;;;;;11.43;6.25;;;-1.70;79.60;;;;;;5055921;28;20376;-78
2023/02/27 01:09:19;;;;;;;5.78;4.00;;;-1.70;79.50;;;;;;5054576;28;20040;-78
2023/02/27 01:11:45;;;;;;;7.07;3.97;;;-1.70;79.70;;;;;;5054661;28;20475;-78
2023/02/27 01:14:11;;;;;;;7.20;3.45;;;-1.70;80.10;;;;;;5055808;28;20025;-78
2023/02/27 01:16:36;;;;;;;7.30;3.38;;;-1.80;79.70;;;;;;5055809;28;20033;-78
2023/02/27 01:19:02;;;;;;;7.10;3.70;;;-1.80;77.80;;;;;;5054444;28;20021;-79
2023/02/27 01:21:28;;;;;;;7.93;3.17;;;-1.80;77.60;;;;;;5054478;28;20071;-79
2023/02/27 01:23:54;;;;;;;4.50;3.33;;;-1.80;77.50;;;;;;5054758;28;20442;-79
2023/02/27 01:26:20;;;;;;;4.05;3.33;;;-1.80;77.30;;;;;;5041465;28;20030;-80
2023/02/27 01:28:45;;;;;;;2.85;2.33;;;-1.70;77.60;;;;;;5034587;28;20025;-78
2023/02/27 01:31:11;;;;;;;4.35;2.65;;;-1.70;76.60;;;;;;5054680;28;20021;-78
2023/02/27 01:33:37;;;;;;;6.90;3.10;;;-1.70;76.30;;;;;;5054211;28;20486;-78
2023/02/27 01:36:02;;;;;;;4.93;2.92;;;-1.80;76.00;;;;;;5055272;28;20100;-78
2023/02/27 01:38:28;;;;;;;4.50;2.70;;;-1.70;75.10;;;;;;5055572;28;20029;-78
2023/02/27 01:40:56;;;;;;;3.40;3.10;;;-1.70;75.40;;;;;;5053483;28;20174;-79
2023/02/27 01:43:22;;;;;;;4.22;2.78;;;-1.70;74.50;;;;;;5054194;28;20075;-81
2023/02/27 01:45:48;;;;;;;4.03;2.83;;;-1.70;75.20;;;;;;5054810;28;20070;-79
2023/02/27 01:48:19;;;;;;;4.45;2.72;;;-1.60;74.90;;;;;;5053838;28;20025;-79
2023/02/27 01:50:51;;;;;;;2.70;2.50;;;-1.60;74.50;;;;;;5054800;28;20028;-80
2023/02/27 01:53:18;;;;;;;2.83;2.28;;;-1.60;73.80;;;;;;5054983;28;20024;-79
2023/02/27 01:55:46;;;;;;;3.83;2.53;;;-1.60;74.00;;;;;;5053457;28;20032;-80
2023/02/27 01:58:13;;;;;;;4.22;2.38;;;-1.50;74.20;;;;;;5053852;28;20127;-80
2023/02/27 02:00:40;;;;;;;3.85;2.47;;;-1.50;74.10;;;;;;5053575;28;20386;-80
2023/02/27 02:03:21;;;;;;;5.47;2.60;;;-1.50;73.90;;;;;;5054525;28;20105;-81
2023/02/27 02:05:50;;;;;;;5.13;2.78;;;-1.50;73.50;;;;;;5052952;28;20478;-81
2023/02/27 02:08:18;;;;;;;6.32;2.97;;;-1.50;74.10;;;;;;5054447;28;20386;-82
2023/02/27 02:10:45;;;;;;;5.63;2.67;;;-1.50;74.30;;;;;;5053220;28;20540;-82
2023/02/27 02:13:11;;;;;;;5.93;3.00;;;-1.50;74.60;;;;;;5054300;28;20035;-82
2023/02/27 02:15:55;;;;;;;3.92;2.63;;;-1.50;74.60;;;;;;5054245;28;20029;-82
2023/02/27 02:18:34;;;;;;;4.18;3.15;;;-1.50;74.50;;;;;;5053026;28;20040;-82
2023/02/27 02:21:40;;;;;;;8.75;3.78;;;-1.50;75.60;;;;;;5054377;28;20109;-81
2023/02/27 02:24:48;;;;;;;4.15;3.00;;;-1.50;75.30;;;;;;5045336;28;20040;-81
2023/02/27 02:27:29;;;;;;;4.00;2.22;;;-1.50;75.30;;;;;;5054194;28;20033;-81
2023/02/27 02:30:30;;;;;;;5.78;3.05;;;-1.60;75.80;;;;;;5052746;28;20044;-81
2023/02/27 02:33:02;;;;;;;4.68;2.97;;;-1.60;76.20;;;;;;5053024;28;20111;-82
2023/02/27 02:36:05;;;;;;;4.25;3.40;;;-1.60;76.70;;;;;;5054077;28;20029;-80
2023/02/27 02:38:37;;;;;;;5.55;3.10;;;-1.60;77.40;;;;;;5069941;28;20044;-80
2023/02/27 02:41:27;;;;;;;6.65;3.10;;;-1.60;78.30;;;;;;5057427;28;20032;-80
2023/02/27 02:44:03;;;;;;;3.95;2.92;;;-1.50;78.50;;;;;;5054439;28;20098;-81
2023/02/27 02:46:54;;;;;;;3.20;2.85;;;-1.60;79.50;;;;;;5053627;28;20055;-81
2023/02/27 02:49:58;;;;;;;4.93;3.00;;;-1.60;80.00;;;;;;5061262;28;20033;-81
2023/02/27 02:52:46;;;;;;;;;;;-1.60;81.20;;;;;;5052799;28;20028;-81
2023/02/27 02:55:16;;;;;;;4.13;3.30;;;-1.50;81.90;;;;;;5051739;28;19912;-82
2023/02/27 02:57:58;;;;;;;3.78;2.90;;;-1.60;82.90;;;;;;5052392;28;20037;-81
2023/02/27 03:00:29;;;;;;;4.82;3.15;;;-1.60;85.00;;;;;;5052373;28;20048;-80
2023/02/27 03:03:04;;;;;;;10.25;5.20;;;-1.60;86.30;;;;;;5053269;28;20075;-82
2023/02/27 03:05:36;;;;;;;6.25;3.88;;;-1.70;88.60;;;;;;5053780;28;20037;-82
2023/02/27 03:08:07;;;;;;;12.18;6.35;;;-1.70;91.70;;;;;;5052005;28;20021;-82
2023/02/27 03:10:39;;;;;;;8.20;4.53;;;-1.70;95.20;;;;;;5053534;28;20044;-81
2023/02/27 03:13:10;;;;;;;9.82;4.55;;;-1.70;96.30;;;;;;5053516;28;20036;-81
2023/02/27 03:15:46;;;;;;;7.53;3.97;;;-1.70;97.00;;;;;;5053536;28;20067;-78
2023/02/27 03:18:24;;;;;;;11.68;4.47;;;-1.70;97.70;;;;;;5053679;28;20036;-78
2023/02/27 03:21:05;;;;;;;7.13;4.50;;;-1.70;99.30;;;;;;5053527;28;20036;-77
2023/02/27 03:23:43;;;;;;;8.07;4.53;;;-1.60;99.00;;;;;;5053713;28;20029;-78
2023/02/27 03:26:12;;;;;;;6.47;4.43;;;-1.60;99.00;;;;;;5053342;28;20067;-78
2023/02/27 03:28:48;;;;;;;6.85;4.93;;;-1.60;99.50;;;;;;5052141;28;20025;-78
2023/02/27 03:31:43;;;;;;;8.60;4.80;;;-1.60;99.60;;;;;;5052373;28;20037;-82
2023/02/27 03:34:22;;;;;;;8.88;4.90;;;-1.60;99.90;;;;;;5049605;28;20044;-82
2023/02/27 03:36:59;;;;;;;8.18;4.45;;;-1.70;99.90;;;;;;5051441;28;20044;-82
2023/02/27 03:39:51;;;;;;;7.82;4.88;;;-1.70;99.90;;;;;;5051733;28;20056;-81
2023/02/27 03:42:37;;;;;;;10.07;4.88;;;-1.70;99.90;;;;;;5051475;28;20111;-82
2023/02/27 03:45:26;;;;;;;8.13;4.65;;;-1.70;99.90;;;;;;5052546;28;20498;-81
2023/02/27 03:47:52;;;;;;;9.90;5.70;;;-1.70;99.90;;;;;;5053222;28;20045;-82
2023/02/27 03:50:18;;;;;;;16.55;5.57;;;-1.70;99.90;;;;;;5051472;28;20037;-82
2023/02/27 03:52:45;;;;;;;10.85;5.60;;;-1.70;99.90;;;;;;5052918;28;20115;-82
2023/02/27 03:55:17;;;;;;;11.45;5.78;;;-1.80;99.90;;;;;;5052660;28;20017;-82
2023/02/27 03:57:46;;;;;;;12.77;6.18;;;-1.80;99.90;;;;;;5052682;28;20029;-82
2023/02/27 04:00:19;;;;;;;10.10;5.45;;;-1.70;99.90;;;;;;5051076;28;20029;-82
2023/02/27 04:02:49;;;;;;;10.80;5.70;;;-1.80;99.90;;;;;;5052585;28;20364;-82
2023/02/27 04:05:15;;;;;;;13.73;6.32;;;-1.80;99.90;;;;;;5052533;28;20033;-82
2023/02/27 04:08:02;;;;;;;11.80;6.78;;;-1.80;99.90;;;;;;5052523;28;20021;-82
2023/02/27 04:10:51;;;;;;;10.98;6.18;;;-1.70;99.90;;;;;;5052333;28;20100;-82
2023/02/27 04:13:39;;;;;;;16.15;6.60;;;-1.70;99.90;;;;;;5051342;28;20071;-82
2023/02/27 04:16:19;;;;;;;12.85;6.07;;;-1.70;99.90;;;;;;5051056;28;20172;-82
2023/02/27 04:19:03;;;;;;;12.55;6.18;;;-1.70;99.90;;;;;;5051303;28;20106;-78
2023/02/27 04:21:34;;;;;;;16.08;6.25;;;-1.70;99.90;;;;;;5052835;28;20083;-78
2023/02/27 04:24:18;;;;;;;10.13;5.72;;;-1.80;99.90;;;;;;5053002;28;20028;-78
2023/02/27 04:27:07;;;;;;;14.32;6.45;;;-1.80;99.90;;;;;;5051473;28;20025;-78
2023/02/27 04:29:57;;;;;;;10.05;5.00;;;-1.70;99.90;;;;;;5047784;28;20037;-78
2023/02/27 04:32:45;;;;;;;7.70;5.38;;;-1.70;99.90;;;;;;5051562;28;20096;-78
2023/02/27 04:35:37;;;;;;;10.43;5.20;;;-1.80;99.90;;;;;;5055119;28;20021;-78
2023/02/27 04:38:35;;;;;;;12.77;5.22;;;-1.70;99.90;;;;;;5056497;28;20036;-77
2023/02/27 04:41:07;;;;;;;13.93;6.32;;;-1.70;99.90;;;;;;5055502;28;20033;-77
2023/02/27 04:43:36;;;;;;;8.48;5.25;;;-1.70;99.90;;;;;;5055328;28;20155;-78
2023/02/27 04:46:05;;;;;;;8.60;5.28;;;-1.70;99.90;;;;;;5056327;28;20494;-78
2023/02/27 04:49:01;;;;;;;8.93;5.40;;;-1.70;99.90;;;;;;5055866;28;20037;-84
2023/02/27 04:51:34;;;;;;;8.30;5.18;;;-1.70;99.90;;;;;;5056088;28;20033;-79
2023/02/27 04:54:09;;;;;;;11.52;6.47;;;-1.80;99.90;;;;;;5055095;28;20071;-78
2023/02/27 04:56:40;;;;;;;9.05;4.60;;;-1.70;99.90;;;;;;5054915;28;20441;-78
2023/02/27 04:59:20;;;;;;;11.02;6.43;;;-1.70;99.90;;;;;;5056285;28;20021;-78
2023/02/27 05:01:54;;;;;;;12.57;6.38;;;-1.70;99.90;;;;;;5054735;28;20036;-79
2023/02/27 05:04:23;;;;;;;12.18;6.10;;;-1.70;99.90;;;;;;5056264;28;20021;-79
2023/02/27 05:06:50;;;;;;;8.65;5.60;;;-1.70;99.90;;;;;;5054644;28;20055;-78
2023/02/27 05:09:39;;;;;;;10.25;5.93;;;-1.70;99.90;;;;;;5056091;28;20047;-77
2023/02/27 05:12:32;;;;;;;14.27;8.40;;;-1.70;99.90;;;;;;5054631;28;20036;-78
2023/02/27 05:15:12;;;;;;;17.05;7.40;;;-1.70;99.90;;;;;;5056052;28;20021;-78
2023/02/27 05:18:08;;;;;;;15.45;6.88;;;-1.70;99.90;;;;;;5055725;28;20090;-78
2023/02/27 05:20:45;;;;;;;12.85;7.28;;;-1.70;99.90;;;;;;5054415;28;20390;-78
2023/02/27 05:23:58;;;;;;;29.00;16.27;;;-1.70;99.90;;;;;;5055734;28;20163;-80
2023/02/27 05:26:51;;;;;;;120.53;49.87;;;-1.70;99.90;;;;;;5013722;28;20037;-79
2023/02/27 05:29:16;;;;;;;52.22;28.50;;;-1.70;99.90;;;;;;4997485;28;20084;-79
2023/02/27 05:31:54;;;;;;;15.50;9.07;;;-1.70;99.90;;;;;;5040493;28;20044;-78
2023/02/27 05:34:32;;;;;;;12.98;6.78;;;-1.70;99.90;;;;;;5054305;28;20108;-78
2023/02/27 05:37:27;;;;;;;19.63;8.75;;;-1.70;99.90;;;;;;5055305;28;20107;-78
2023/02/27 05:39:53;;;;;;;29.17;12.68;;;-1.80;99.90;;;;;;5054295;28;20033;-78
2023/02/27 05:42:30;;;;;;;44.60;17.83;;;-1.80;99.90;;;;;;5055309;28;20433;-78
2023/02/27 05:45:06;;;;;;;46.50;19.67;;;-1.80;99.90;;;;;;5052606;28;20052;-79
2023/02/27 05:47:35;;;;;;;65.55;26.15;;;-1.80;99.90;;;;;;5053909;28;20029;-79
2023/02/27 05:50:15;;;;;;;14.73;7.57;;;-1.70;99.90;;;;;;5055217;28;20025;-78
2023/02/27 05:52:44;;;;;;;28.58;13.52;;;-1.80;99.90;;;;;;5054172;28;20032;-78
2023/02/27 05:55:26;;;;;;;18.65;10.40;;;-1.80;99.90;;;;;;5053639;28;20025;-82
2023/02/27 05:58:06;;;;;;;11.18;6.40;;;-1.80;99.90;;;;;;5054262;28;20110;-82
2023/02/27 06:00:37;;;;;;;23.52;11.70;;;-1.80;99.90;;;;;;5054743;28;20025;-81
2023/02/27 06:03:03;;;;;;;25.90;11.13;;;-1.80;99.90;;;;;;5053598;28;20056;-81
2023/02/27 06:05:29;;;;;;;49.17;21.85;;;-1.80;99.90;;;;;;5060667;28;20056;-81
2023/02/27 06:07:55;;;;;;;31.42;13.40;;;-1.80;99.90;;;;;;5055510;28;20099;-80
2023/02/27 06:10:21;;;;;;;22.27;10.05;;;-1.80;99.90;;;;;;5053629;28;20032;-80
2023/02/27 06:12:47;;;;;;;28.70;12.52;;;-1.80;99.90;;;;;;5053353;28;20021;-81
2023/02/27 06:15:13;;;;;;;11.80;5.82;;;-1.70;99.90;;;;;;5053944;28;20021;-80
2023/02/27 06:17:39;;;;;;;11.32;6.50;;;-1.70;99.90;;;;;;5056997;28;20041;-81
2023/02/27 06:20:06;;;;;;;28.60;14.13;;;-1.70;99.90;;;;;;5054478;28;20025;-81
2023/02/27 06:22:32;;;;;;;26.60;12.90;;;-1.60;99.90;;;;;;5053791;28;20029;-81
2023/02/27 06:24:58;;;;;;;13.40;6.55;;;-1.60;99.90;;;;;;5053992;28;20075;-81
2023/02/27 06:27:25;;;;;;;18.40;9.40;;;-1.50;99.90;;;;;;5054086;28;20479;-81
2023/02/27 06:29:52;;;;;;;22.33;9.13;;;-1.50;99.90;;;;;;5054414;28;20116;-81
2023/02/27 06:32:18;;;;;;;32.53;13.50;;;-1.60;99.90;;;;;;5052945;28;20463;-81
2023/02/27 06:34:44;;;;;;;29.10;12.88;;;-1.60;99.90;;;;;;5056286;28;20025;-80
2023/02/27 06:37:09;;;;;;;23.88;12.23;;;-1.60;99.90;;;;;;5053501;28;20041;-81
2023/02/27 06:39:35;;;;;;;32.92;14.88;;;-1.60;99.90;;;;;;5052047;28;20021;-81
2023/02/27 06:42:01;;;;;;;18.20;9.77;;;-1.60;99.90;;;;;;5052149;28;20025;-81
2023/02/27 06:44:26;;;;;;;28.08;12.80;;;-1.50;99.90;;;;;;5053779;28;20025;-81
2023/02/27 06:46:52;;;;;;;15.23;8.40;;;-1.50;99.90;;;;;;5053589;28;20380;-80
2023/02/27 06:49:17;;;;;;;22.35;10.52;;;-1.50;99.90;;;;;;5054078;28;20537;-81
2023/02/27 06:51:43;;;;;;;17.23;9.07;;;-1.50;99.90;;;;;;5051923;28;20063;-80
2023/02/27 06:54:09;;;;;;;20.40;9.43;;;-1.40;99.90;;;;;;5053340;28;20665;-81
2023/02/27 06:56:35;;;;;;;24.85;11.32;;;-1.40;99.90;;;;;;5051342;28;20036;-81
2023/02/27 06:59:00;;;;;;;12.30;7.10;;;-1.40;99.90;;;;;;5050374;28;20504;-81
2023/02/27 07:01:26;;;;;;;9.30;6.13;;;-1.50;99.90;;;;;;5051548;28;20422;-80
2023/02/27 07:03:51;;;;;;;21.05;9.18;;;-1.50;99.90;;;;;;5051664;28;20025;-80
2023/02/27 07:06:17;;;;;;;11.48;4.90;;;-1.40;99.90;;;;;;5051404;28;20021;-80
2023/02/27 07:08:43;;;;;;;20.55;9.15;;;-1.40;99.90;;;;;;5051079;28;20032;-80
2023/02/27 07:11:08;;;;;;;17.05;8.82;;;-1.40;99.90;;;;;;5051011;28;20017;-80
2023/02/27 07:13:34;;;;;;;22.88;12.00;;;-1.30;99.90;;;;;;5052568;28;20021;-80
2023/02/27 07:16:00;;;;;;;7.30;5.35;;;-1.30;99.90;;;;;;5052034;28;20479;-80
2023/02/27 07:18:25;;;;;;;8.95;4.80;;;-1.30;99.90;;;;;;5053551;28;20082;-80
2023/02/27 07:20:54;;;;;;;12.27;6.90;;;-1.30;99.90;;;;;;5053419;28;20107;-81
2023/02/27 07:23:20;;;;;;;9.45;5.18;;;-1.20;99.90;;;;;;5052220;28;20037;-81
2023/02/27 07:25:46;;;;;;;16.50;7.13;;;-1.10;99.90;;;;;;5051656;28;20402;-80
2023/02/27 07:28:12;;;;;;;9.98;4.72;;;-1.20;99.90;;;;;;5048510;28;20399;-80
2023/02/27 07:30:38;;;;;;;6.88;4.43;;;-1.10;99.90;;;;;;5031976;28;20048;-80
2023/02/27 07:33:04;;;;;;;11.07;5.68;;;-1.00;99.90;;;;;;5047636;28;20044;-81
2023/02/27 07:35:30;;;;;;;9.82;6.75;;;-1.00;99.90;;;;;;5054543;28;20100;-81
2023/02/27 07:37:56;;;;;;;9.70;5.43;;;-1.00;99.90;;;;;;5056546;28;20136;-81
2023/02/27 07:40:21;;;;;;;10.02;6.43;;;-1.00;99.90;;;;;;5052110;28;20021;-80
2023/02/27 07:42:48;;;;;;;9.90;5.28;;;-0.90;99.90;;;;;;5051729;28;20041;-80
2023/02/27 07:45:13;;;;;;;8.65;7.00;;;-1.00;99.90;;;;;;5051703;28;20045;-80
2023/02/27 07:47:39;;;;;;;11.07;5.78;;;-1.10;99.90;;;;;;5051375;28;20078;-80
2023/02/27 07:50:06;;;;;;;13.85;7.45;;;-1.10;99.90;;;;;;5053258;28;20029;-79
2023/02/27 07:52:31;;;;;;;22.77;10.32;;;-1.10;99.90;;;;;;5051849;28;20060;-80
2023/02/27 07:54:57;;;;;;;11.40;6.85;;;-1.00;99.90;;;;;;5051986;28;20474;-80
2023/02/27 07:57:22;;;;;;;10.07;6.78;;;-1.10;99.90;;;;;;5053021;28;20045;-80
2023/02/27 07:59:48;;;;;;;8.18;6.20;;;-1.00;99.90;;;;;;5052046;28;20025;-80
2023/02/27 08:02:14;;;;;;;13.85;8.23;;;-1.10;99.90;;;;;;5051622;28;20040;-80
2023/02/27 08:04:40;;;;;;;13.25;8.45;;;-1.10;99.90;;;;;;5051705;28;20022;-80
2023/02/27 08:07:05;;;;;;;12.52;7.05;;;-1.00;99.90;;;;;;5052834;28;20032;-80
2023/02/27 08:09:31;;;;;;;14.85;9.30;;;-1.00;99.90;;;;;;5055821;28;20031;-80
2023/02/27 08:11:57;;;;;;;12.45;8.45;;;-0.90;99.90;;;;;;5054178;28;20024;-81
2023/02/27 08:14:23;;;;;;;20.63;11.90;;;-0.90;99.90;;;;;;5056980;28;20059;-80
2023/02/27 08:16:49;;;;;;;11.75;7.75;;;-0.90;99.90;;;;;;5056688;28;20037;-80
2023/02/27 08:19:15;;;;;;;20.63;9.50;;;-0.90;99.90;;;;;;5056078;28;20467;-80
2023/02/27 08:21:40;;;;;;;18.35;10.32;;;-1.00;99.90;;;;;;5056035;28;20033;-80
2023/02/27 08:24:06;;;;;;;15.57;8.18;;;-0.90;99.90;;;;;;5056920;28;20474;-79
2023/02/27 08:26:31;;;;;;;17.38;8.98;;;-1.00;99.90;;;;;;5055902;28;20021;-79
2023/02/27 08:28:57;;;;;;;13.95;7.40;;;-0.90;99.90;;;;;;5052147;28;20475;-80
2023/02/27 08:31:23;;;;;;;12.55;7.13;;;-1.00;99.90;;;;;;5035546;28;20025;-80
2023/02/27 08:33:48;;;;;;;15.88;8.40;;;-0.90;99.90;;;;;;5054601;28;20029;-80
2023/02/27 08:36:14;;;;;;;21.80;11.10;;;-1.00;99.90;;;;;;5055695;28;20040;-80
2023/02/27 08:38:40;;;;;;;17.52;9.60;;;-1.00;99.90;;;;;;5055502;28;20041;-80
2023/02/27 08:41:05;;;;;;;20.17;10.70;;;-1.00;99.90;;;;;;5056503;28;20025;-80
2023/02/27 08:43:31;;;;;;;11.32;8.18;;;-1.00;99.90;;;;;;5055387;28;20116;-79
2023/02/27 08:45:57;;;;;;;14.40;7.72;;;-1.00;99.90;;;;;;5055255;28;20069;-80
2023/02/27 08:48:23;;;;;;;9.98;7.90;;;-1.00;99.90;;;;;;5055503;28;20083;-80
2023/02/27 08:50:49;;;;;;;10.82;7.50;;;-0.90;99.90;;;;;;5056427;28;20021;-80
2023/02/27 08:53:15;;;;;;;10.35;5.75;;;-0.80;99.90;;;;;;5056332;28;20025;-81
2023/02/27 08:55:41;;;;;;;9.90;7.18;;;-0.90;99.90;;;;;;5055217;28;20021;-80
2023/02/27 08:58:07;;;;;;;12.35;6.35;;;-1.00;99.90;;;;;;5056091;28;20037;-80
2023/02/27 09:00:33;;;;;;;13.95;6.95;;;-1.00;99.90;;;;;;5056287;28;20052;-80
2023/02/27 09:03:00;;;;;;;10.02;5.90;;;-0.90;99.90;;;;;;5055130;28;20044;-80
2023/02/27 09:05:26;;;;;;;9.40;6.25;;;-0.90;99.90;;;;;;5055266;28;20009;-80
2023/02/27 09:07:52;;;;;;;11.07;7.20;;;-0.90;99.90;;;;;;5055882;28;20071;-80
2023/02/27 09:10:17;;;;;;;9.82;5.78;;;-0.80;99.90;;;;;;5056059;28;20048;-80
2023/02/27 09:12:43;;;;;;;5.60;4.53;;;-0.80;99.90;;;;;;5055998;28;20031;-80
2023/02/27 09:15:10;;;;;;;10.40;5.95;;;-0.70;99.90;;;;;;5054980;28;20070;-80
2023/02/27 09:17:36;;;;;;;10.45;5.72;;;-0.70;98.50;;;;;;5054522;28;20090;-80
2023/02/27 09:20:03;;;;;;;7.97;5.00;;;-0.60;96.90;;;;;;5055432;28;20020;-80
2023/02/27 09:22:29;;;;;;;9.68;5.97;;;-0.50;96.30;;;;;;5055577;28;20025;-80
2023/02/27 09:24:54;;;;;;;9.85;5.15;;;-0.40;93.90;;;;;;5055744;28;20029;-80
2023/02/27 09:27:22;;;;;;;9.38;4.95;;;-0.40;89.80;;;;;;5055447;28;20025;-80
2023/02/27 09:29:54;;;;;;;8.52;4.55;;;-0.40;88.00;;;;;;5055959;28;20021;-80
2023/02/27 09:32:22;;;;;;;4.32;2.83;;;-0.40;84.70;;;;;;5055604;28;20486;-81
2023/02/27 09:34:48;;;;;;;5.93;3.67;;;-0.50;82.60;;;;;;5055849;28;20066;-80
2023/02/27 09:37:14;;;;;;;7.47;3.65;;;-0.40;81.10;;;;;;5054093;28;20037;-80
2023/02/27 09:39:40;;;;;;;5.80;3.05;;;-0.50;80.60;;;;;;5054187;28;20021;-80
2023/02/27 09:42:15;;;;;;;6.80;4.72;;;-0.50;79.70;;;;;;5055594;28;20028;-80
2023/02/27 09:45:04;;;;;;;6.93;4.18;;;-0.40;81.70;;;;;;5054473;28;20017;-80
2023/02/27 09:47:36;;;;;;;7.28;4.40;;;-0.30;79.60;;;;;;5052604;28;20056;-81
2023/02/27 09:50:04;;;;;;;7.70;3.53;;;-0.40;79.10;;;;;;5053253;28;20033;-80
2023/02/27 09:52:33;;;;;;;9.98;5.07;;;-0.20;79.80;;;;;;5054219;28;20049;-80
2023/02/27 09:54:59;;;;;;;7.63;4.07;;;-0.20;79.20;;;;;;5054266;28;20394;-81
2023/02/27 09:57:40;;;;;;;4.93;2.60;;;-0.30;78.30;;;;;;5052625;28;20033;-80
2023/02/27 10:00:33;;;;;;;8.40;4.65;;;-0.30;78.10;;;;;;5054092;28;20021;-80
2023/02/27 10:03:04;;;;;;;5.57;4.45;;;-0.10;78.50;;;;;;5053670;28;20475;-80
2023/02/27 10:05:36;;;;;;;5.60;3.33;;;0.00;76.60;;;;;;5054144;28;20368;-80
2023/02/27 10:08:12;;;;;;;4.20;3.15;;;0.20;75.30;;;;;;5053428;28;20041;-80
2023/02/27 10:10:47;;;;;;;5.10;3.67;;;0.40;75.20;;;;;;5055147;28;20025;-80
2023/02/27 10:13:50;;;;;;;5.60;3.42;;;0.30;71.60;;;;;;5054752;28;20028;-80
2023/02/27 10:16:19;;;;;;;3.22;2.45;;;0.20;71.40;;;;;;5053623;28;20032;-81
2023/02/27 10:18:45;;;;;;;5.18;3.22;;;0.10;70.40;;;;;;5055174;28;20025;-80
2023/02/27 10:21:21;;;;;;;5.05;3.15;;;0.00;70.20;;;;;;5052954;28;20025;-80
2023/02/27 10:24:05;;;;;;;10.38;3.30;;;-0.10;71.90;;;;;;5044562;28;20075;-80
2023/02/27 10:26:36;;;;;;;4.85;3.00;;;-0.10;72.50;;;;;;5037395;28;20025;-80
2023/02/27 10:29:29;;;;;;;5.45;3.78;;;-0.20;72.90;;;;;;5053178;28;20093;-80
2023/02/27 10:32:19;;;;;;;5.00;3.90;;;-0.30;73.70;;;;;;5051589;28;20045;-80
2023/02/27 10:34:57;;;;;;;4.32;2.47;;;-0.30;72.10;;;;;;5053683;28;20029;-81
2023/02/27 10:37:25;;;;;;;17.48;8.63;;;-0.30;69.40;;;;;;5049459;28;20052;-81
2023/02/27 10:39:54;;;;;;;19.25;9.73;;;-0.30;69.80;;;;;;5033550;28;20026;-81
2023/02/27 10:42:26;;;;;;;3.50;2.50;;;-0.10;70.60;;;;;;5043636;28;20021;-81
2023/02/27 10:44:53;;;;;;;6.43;3.13;;;-0.20;68.80;;;;;;5053652;28;20035;-81
2023/02/27 10:47:21;;;;;;;5.45;2.92;;;-0.30;68.50;;;;;;5045549;28;20294;-81
2023/02/27 10:49:47;;;;;;;3.00;2.70;;;-0.20;69.20;;;;;;5054170;28;20021;-81
2023/02/27 10:52:16;;;;;;;2.63;2.35;;;-0.20;68.40;;;;;;5053989;28;20505;-81
2023/02/27 10:54:42;;;;;;;7.00;4.07;;;-0.20;67.40;;;;;;5054284;28;20100;-81
2023/02/27 10:57:20;;;;;;;7.38;3.22;;;-0.10;63.70;;;;;;5052460;28;20047;-81
2023/02/27 10:59:52;;;;;;;6.90;4.00;;;-0.10;60.20;;;;;;5052720;28;20029;-80
2023/02/27 11:02:22;;;;;;;4.07;2.72;;;0.00;59.60;;;;;;5052536;28;20056;-81
2023/02/27 11:04:53;;;;;;;8.63;4.28;;;0.00;59.10;;;;;;5051385;28;20028;-81
2023/02/27 11:07:31;;;;;;;5.22;3.38;;;0.10;60.50;;;;;;5052710;28;20646;-81
2023/02/27 11:10:00;;;;;;;5.97;3.65;;;0.30;60.70;;;;;;5052624;28;20025;-80
2023/02/27 11:12:32;;;;;;;7.47;4.18;;;0.30;60.10;;;;;;5052393;28;20021;-81
2023/02/27 11:15:24;;;;;;;4.10;3.20;;;0.30;60.50;;;;;;5052668;28;20021;-81
2023/02/27 11:17:51;;;;;;;3.45;2.58;;;0.30;62.10;;;;;;5052090;28;20033;-81
2023/02/27 11:20:39;;;;;;;3.00;2.30;;;0.20;62.40;;;;;;5052476;28;20020;-81
2023/02/27 11:23:20;;;;;;;2.90;2.38;;;0.20;62.70;;;;;;5053879;28;20056;-81
2023/02/27 11:25:47;;;;;;;4.97;2.90;;;0.10;63.40;;;;;;5053646;28;20017;-80
2023/02/27 11:28:29;;;;;;;3.53;2.25;;;0.20;63.90;;;;;;5053693;28;20202;-81
2023/02/27 11:31:05;;;;;;;11.40;6.05;;;0.20;64.20;;;;;;5052220;28;20063;-81
2023/02/27 11:33:35;;;;;;;8.38;4.80;;;0.20;63.80;;;;;;5052319;28;20017;-81
2023/02/27 11:36:02;;;;;;;10.23;6.85;;;0.20;63.80;;;;;;5053462;28;20398;-81
2023/02/27 11:38:31;;;;;;;8.82;4.72;;;0.10;64.30;;;;;;5053479;28;20047;-81
2023/02/27 11:41:03;;;;;;;18.23;11.55;;;0.20;64.50;;;;;;5052024;28;20089;-79
2023/02/27 11:43:38;;;;;;;17.67;10.63;;;0.20;65.20;;;;;;5053105;28;20036;-79
2023/02/27 11:46:09;;;;;;;9.45;5.03;;;0.30;64.90;;;;;;5053329;28;20295;-79
2023/02/27 11:48:49;;;;;;;7.50;5.03;;;0.00;65.70;;;;;;5052124;28;20432;-79
2023/02/27 11:51:45;;;;;;;7.68;5.57;;;0.10;65.60;;;;;;5053151;28;20047;-79
2023/02/27 11:54:35;;;;;;;20.60;12.70;;;0.10;64.10;;;;;;5053249;28;20071;-79
2023/02/27 11:57:21;;;;;;;4.93;3.80;;;0.00;64.00;;;;;;5052083;28;20097;-79
2023/02/27 12:00:11;;;;;;;7.85;5.63;;;0.00;63.90;;;;;;5053083;28;20025;-78
2023/02/27 12:02:46;;;;;;;18.63;11.05;;;0.10;63.90;;;;;;5042881;28;20033;-79
2023/02/27 12:05:38;;;;;;;3.63;3.30;;;0.10;62.70;;;;;;5051519;28;20028;-79
2023/02/27 12:08:12;;;;;;;6.30;4.65;;;0.10;61.90;;;;;;5051907;28;20086;-79
2023/02/27 12:10:59;;;;;;;6.05;4.20;;;0.10;60.00;;;;;;5051690;28;20162;-78
2023/02/27 12:13:30;;;;;;;3.72;2.42;;;0.00;59.70;;;;;;5052935;28;20086;-79
2023/02/27 12:16:05;;;;;;;5.90;3.70;;;0.10;59.70;;;;;;5052208;28;20029;-79
2023/02/27 12:18:48;;;;;;;2.63;2.42;;;0.10;59.80;;;;;;5053199;28;20036;-79
2023/02/27 12:21:22;;;;;;;3.25;2.53;;;-0.10;58.20;;;;;;5052935;28;20021;-79
2023/02/27 12:24:25;;;;;;;11.25;5.35;;;-0.10;58.60;;;;;;5051586;28;20052;-79
2023/02/27 12:27:00;;;;;;;5.28;2.90;;;0.00;59.10;;;;;;5052773;28;20036;-78
2023/02/27 12:29:42;;;;;;;12.38;5.70;;;0.00;58.40;;;;;;5051398;28;20029;-79
2023/02/27 12:32:30;;;;;;;9.68;4.50;;;0.00;58.80;;;;;;5052765;28;20025;-79
2023/02/27 12:35:22;;;;;;;8.25;5.13;;;0.10;59.10;;;;;;5052938;28;20017;-78
2023/02/27 12:37:48;;;;;;;5.57;3.88;;;0.00;58.70;;;;;;5051347;28;20512;-79
2023/02/27 12:40:16;;;;;;;13.13;11.52;;;-0.10;58.80;;;;;;5052644;28;20096;-79
2023/02/27 12:43:30;;;;;;;9.23;4.95;;;-0.10;58.50;;;;;;5051617;28;20021;-79
2023/02/27 12:45:59;;;;;;;3.00;2.47;;;0.10;58.50;;;;;;5034106;28;20394;-79
2023/02/27 12:48:34;;;;;;;4.82;2.95;;;0.00;57.00;;;;;;5052560;28;20096;-79
2023/02/27 12:51:15;;;;;;;1.92;1.80;;;0.00;57.80;;;;;;5051716;28;20210;-78
2023/02/27 12:53:56;;;;;;;6.40;4.50;;;0.10;57.30;;;;;;5051615;28;20037;-78
2023/02/27 12:56:33;;;;;;;5.90;4.25;;;0.10;57.20;;;;;;5055100;28;20390;-78
2023/02/27 12:59:24;;;;;;;3.42;2.75;;;0.20;57.40;;;;;;5056379;28;20116;-79
2023/02/27 13:02:01;;;;;;;2.10;1.90;;;0.10;57.70;;;;;;5055547;28;20086;-79
2023/02/27 13:05:21;;;;;;;2.80;2.60;;;0.10;58.10;;;;;;5054998;28;20421;-78
2023/02/27 13:08:11;;;;;;;6.25;3.13;;;0.30;58.80;;;;;;5030657;28;20510;-79
2023/02/27 13:10:48;;;;;;;2.97;1.67;;;0.40;58.10;;;;;;5055173;28;20478;-79
2023/02/27 13:13:39;;;;;;;5.43;3.17;;;0.20;57.40;;;;;;5054944;28;20082;-79